Portada
METAR-TAF:

METAR-TAF

Aeroports :

Tomsk, Rússia

latitud: 56-23-12N, longitud: 085-12-38E, altitud: 182 m

Observació

L'informe es va fer fa 42 minuts, a les 05:30 UTC
Vent 17 kt del Sud-Oest
Temperatura 7°C
Humitat 45%
Pressió 1013 hPa
Visibilitat 10 km o més
sense núvols per sota de 1500 mi sense presència de cumulonimbus.

METAR: UNTT 080530Z 23009MPS CAVOK 07/M04 Q1013 R21/190055 NOSIG RMK QFE745

Hora: 13:12 (06:12 UTC)

Pronòstic

L'informe es va fer fa 1 hora i 14 minuts, a les 04:58 UTC
Pronòstic vàlid del 08 a les 06 UTC al 08 a les 15 UTC
Vent 16 kt del Sud-Oest amb ràfegues de 35 kt
Visibilitat 10 km o més
Núvols disperses a una alçada de 2000 ft, Cumulonimbus.

TAF: UNTT 080458Z 0806/0815 22008G18MPS 9999 SCT020CB

Observacions i pronòstics meteorològics de més de 4000 aeroports (METAR i TAF).

Les estacions disponibles són els punts grocs i vermells al mapa.

Posi el ratolí al punt desitjat per veure el nom de l'estació.

Feu clic per veure les observacions i els pronòstics meteorològics.

Per canviar el mapa: feu clic els botons verds amb una creu de color negre per apropar; al botó verd amb un guió per allunyar la imatge; o en les fletxes verdes per a mapes adjacents.


METAR-TAF: